Time;durP1;ratioP1;P1;durP2;ratioP2;P2;SDS_P1;SDS_P2;PMS_P1;PMS_P2;Temp;Humidity;BMP_temperature;BMP_pressure;BME280_temperature;BME280_humidity;BME280_pressure;Samples;Min_cycle;Max_cycle;Signal;HPM_P1;HPM_P2
2021/01/15 00:01:06;;;;;;;18.35;10.30;;;0.40;85.40;;;;;;5100500;28;20381;-85
2021/01/15 00:03:33;;;;;;;19.98;9.55;;;0.50;85.70;;;;;;5111189;28;20393;-85
2021/01/15 00:06:05;;;;;;;16.88;9.38;;;0.40;85.20;;;;;;5110779;28;20389;-84
2021/01/15 00:08:40;;;;;;;18.75;9.10;;;0.50;84.10;;;;;;5110733;28;20392;-84
2021/01/15 00:11:14;;;;;;;16.45;8.85;;;0.50;84.10;;;;;;5110731;28;20412;-84
2021/01/15 00:13:40;;;;;;;14.05;7.72;;;0.50;83.50;;;;;;5109957;28;20400;-84
2021/01/15 00:16:05;;;;;;;14.20;8.48;;;0.50;83.60;;;;;;5110336;28;20876;-84
2021/01/15 00:18:31;;;;;;;18.10;8.43;;;0.50;84.10;;;;;;5109514;28;20381;-84
2021/01/15 00:20:56;;;;;;;17.35;8.88;;;0.50;83.20;;;;;;5108891;28;20391;-85
2021/01/15 00:23:22;;;;;;;16.27;8.50;;;0.50;83.30;;;;;;5089992;28;20497;-85
2021/01/15 00:25:48;;;;;;;17.80;8.50;;;0.50;83.20;;;;;;5090171;28;20389;-86
2021/01/15 00:28:14;;;;;;;14.80;7.75;;;0.40;82.90;;;;;;5089556;28;20425;-84
2021/01/15 00:30:40;;;;;;;14.02;7.88;;;0.40;83.40;;;;;;5090022;28;20405;-84
2021/01/15 00:33:05;;;;;;;16.00;8.27;;;0.40;82.90;;;;;;5090570;28;20413;-84
2021/01/15 00:35:31;;;;;;;17.27;7.93;;;0.50;82.10;;;;;;5089829;28;20870;-85
2021/01/15 00:37:57;;;;;;;14.32;8.07;;;0.50;82.60;;;;;;5090496;28;20378;-84
2021/01/15 00:40:22;;;;;;;12.30;7.25;;;0.40;82.10;;;;;;5089845;28;20466;-86
2021/01/15 00:42:48;;;;;;;13.52;7.82;;;0.40;82.00;;;;;;5089634;28;20747;-84
2021/01/15 00:45:16;;;;;;;13.17;7.10;;;0.50;81.30;;;;;;5089682;28;20500;-85
2021/01/15 00:47:44;;;;;;;13.18;6.95;;;0.50;81.40;;;;;;5089212;28;20869;-85
2021/01/15 00:50:11;;;;;;;13.23;7.22;;;0.40;82.50;;;;;;5101239;28;20741;-84
2021/01/15 00:52:37;;;;;;;15.93;7.77;;;0.40;81.90;;;;;;5109931;28;20798;-86
2021/01/15 00:55:04;;;;;;;15.20;7.68;;;0.50;81.30;;;;;;5109690;28;20383;-85
2021/01/15 00:57:29;;;;;;;13.88;7.50;;;0.40;80.70;;;;;;5109335;28;20401;-84
2021/01/15 00:59:55;;;;;;;16.10;7.50;;;0.40;81.00;;;;;;5109682;28;20387;-86
2021/01/15 01:02:21;;;;;;;16.25;7.63;;;0.40;81.40;;;;;;5109883;28;20411;-85
2021/01/15 01:04:46;;;;;;;15.57;7.60;;;0.40;80.90;;;;;;5109585;28;20419;-84
2021/01/15 01:07:12;;;;;;;15.60;7.53;;;0.40;81.50;;;;;;5109516;28;20711;-84
2021/01/15 01:09:37;;;;;;;15.13;8.13;;;0.40;81.00;;;;;;5109545;28;20931;-86
2021/01/15 01:12:03;;;;;;;14.83;7.80;;;0.40;80.20;;;;;;5109608;28;20404;-85
2021/01/15 01:14:29;;;;;;;15.17;8.43;;;0.40;80.40;;;;;;5109508;28;20864;-85
2021/01/15 01:16:54;;;;;;;13.20;7.70;;;0.40;80.00;;;;;;5109026;28;20384;-84
2021/01/15 01:19:20;;;;;;;16.38;8.25;;;0.40;80.70;;;;;;5114332;28;20429;-84
2021/01/15 01:21:45;;;;;;;16.83;7.70;;;0.30;81.60;;;;;;5117385;28;20921;-85
2021/01/15 01:24:11;;;;;;;14.23;7.65;;;0.40;80.20;;;;;;5116549;28;20391;-84
2021/01/15 01:26:37;;;;;;;14.27;7.88;;;0.40;80.80;;;;;;5109946;28;20376;-85
2021/01/15 01:29:02;;;;;;;12.55;7.60;;;0.30;80.30;;;;;;5116493;28;20453;-84
2021/01/15 01:31:28;;;;;;;14.27;6.80;;;0.40;80.10;;;;;;5116101;28;20433;-85
2021/01/15 01:33:54;;;;;;;13.23;7.53;;;0.40;79.90;;;;;;5116186;28;20404;-84
2021/01/15 01:36:19;;;;;;;14.38;7.55;;;0.40;79.70;;;;;;5117497;28;20457;-86
2021/01/15 01:38:45;;;;;;;15.02;7.68;;;0.40;80.30;;;;;;5115794;28;20479;-84
2021/01/15 01:41:11;;;;;;;14.27;7.20;;;0.40;80.20;;;;;;5117496;28;20932;-84
2021/01/15 01:43:37;;;;;;;16.73;7.83;;;0.30;80.60;;;;;;5116212;28;20421;-85
2021/01/15 01:46:06;;;;;;;14.38;7.32;;;0.30;80.80;;;;;;5116038;28;20510;-85
2021/01/15 01:48:33;;;;;;;12.80;7.45;;;0.40;79.90;;;;;;5117311;27;20368;-84
2021/01/15 01:51:00;;;;;;;13.23;7.07;;;0.40;80.00;;;;;;5116273;28;20405;-85
2021/01/15 01:53:30;;;;;;;15.45;8.07;;;0.30;80.40;;;;;;5115890;28;20438;-84
2021/01/15 01:55:57;;;;;;;13.35;7.40;;;0.30;79.40;;;;;;5115994;28;20404;-85
2021/01/15 01:58:23;;;;;;;13.60;7.03;;;0.30;79.60;;;;;;5115620;28;20433;-84
2021/01/15 02:00:57;;;;;;;14.60;7.73;;;0.30;79.90;;;;;;5116158;28;20384;-84
2021/01/15 02:03:22;;;;;;;15.70;7.87;;;0.30;80.00;;;;;;5115985;28;20393;-84
2021/01/15 02:05:50;;;;;;;16.52;7.78;;;0.30;80.10;;;;;;5115375;28;20396;-84
2021/01/15 02:08:15;;;;;;;15.47;8.10;;;0.40;79.20;;;;;;5116782;28;20395;-85
2021/01/15 02:10:43;;;;;;;18.45;8.40;;;0.40;78.80;;;;;;5115902;28;20392;-84
2021/01/15 02:13:36;;;;;;;17.38;7.75;;;0.40;78.70;;;;;;5115756;28;20400;-86
2021/01/15 02:16:06;;;;;;;16.30;8.13;;;0.40;78.80;;;;;;5115851;28;20884;-86
2021/01/15 02:18:44;;;;;;;15.52;8.18;;;0.30;79.50;;;;;;5115686;28;20730;-86
2021/01/15 02:21:29;;;;;;;15.43;8.93;;;0.40;79.10;;;;;;5115766;28;20385;-85
2021/01/15 02:24:07;;;;;;;14.88;8.50;;;0.40;79.20;;;;;;5115789;28;20392;-85
2021/01/15 02:26:54;;;;;;;16.63;8.17;;;0.40;79.50;;;;;;5115721;28;20887;-84
2021/01/15 02:29:27;;;;;;;16.40;8.80;;;0.40;78.90;;;;;;5115011;28;20729;-84
2021/01/15 02:32:30;;;;;;;14.32;8.60;;;0.40;80.00;;;;;;5111682;28;20377;-84
2021/01/15 02:35:08;;;;;;;16.05;9.43;;;0.40;80.30;;;;;;5112361;28;20872;-83
2021/01/15 02:38:04;;;;;;;17.25;9.38;;;0.30;81.00;;;;;;5096108;28;20388;-84
2021/01/15 02:41:04;;;;;;;16.60;8.80;;;0.40;80.40;;;;;;5112867;28;20395;-84
2021/01/15 02:43:32;;;;;;;20.20;9.82;;;0.40;81.20;;;;;;5111468;28;20427;-84
2021/01/15 02:45:59;;;;;;;17.13;9.10;;;0.30;80.90;;;;;;5112258;28;20712;-84
2021/01/15 02:48:30;;;;;;;17.53;9.70;;;0.40;81.20;;;;;;5111843;28;20473;-84
2021/01/15 02:50:56;;;;;;;18.17;9.53;;;0.40;81.40;;;;;;5112064;28;20872;-83
2021/01/15 02:53:22;;;;;;;18.45;9.65;;;0.40;81.40;;;;;;5112314;28;20408;-85
2021/01/15 02:55:47;;;;;;;19.50;10.17;;;0.40;81.70;;;;;;5111635;28;20772;-84
2021/01/15 02:58:13;;;;;;;23.00;10.65;;;0.40;82.60;;;;;;5101859;28;20382;-85
2021/01/15 03:00:41;;;;;;;22.92;11.40;;;0.40;82.90;;;;;;5092854;28;20736;-86
2021/01/15 03:03:28;;;;;;;18.38;9.90;;;0.40;83.60;;;;;;5092700;28;20377;-84
2021/01/15 03:06:04;;;;;;;20.70;11.82;;;0.40;84.30;;;;;;5109343;28;20388;-84
2021/01/15 03:08:30;;;;;;;24.45;12.48;;;0.40;85.00;;;;;;5111941;28;20445;-85
2021/01/15 03:11:00;;;;;;;25.77;13.00;;;0.40;85.40;;;;;;5111781;28;20888;-84
2021/01/15 03:13:28;;;;;;;25.73;12.60;;;0.40;85.60;;;;;;5097663;28;20504;-84
2021/01/15 03:15:59;;;;;;;28.52;13.90;;;0.40;85.60;;;;;;5111887;28;20392;-85
2021/01/15 03:18:27;;;;;;;27.33;13.20;;;0.40;86.50;;;;;;5111459;28;20475;-84
2021/01/15 03:20:53;;;;;;;29.63;13.93;;;0.40;87.00;;;;;;5111987;28;20391;-84
2021/01/15 03:23:19;;;;;;;29.27;14.13;;;0.40;87.50;;;;;;5111539;28;20392;-84
2021/01/15 03:25:44;;;;;;;32.23;15.10;;;0.40;87.70;;;;;;5111886;28;20385;-85
2021/01/15 03:28:10;;;;;;;35.35;15.98;;;0.40;88.40;;;;;;5111201;28;20437;-84
2021/01/15 03:30:36;;;;;;;31.70;15.05;;;0.30;88.60;;;;;;5111886;28;20441;-86
2021/01/15 03:33:04;;;;;;;30.40;15.80;;;0.30;88.50;;;;;;5111207;28;20411;-83
2021/01/15 03:35:31;;;;;;;30.90;15.05;;;0.30;88.80;;;;;;5111661;28;20828;-83
2021/01/15 03:38:10;;;;;;;33.80;16.98;;;0.30;88.60;;;;;;5112158;28;20974;-83
2021/01/15 03:40:36;;;;;;;34.53;15.38;;;0.30;88.70;;;;;;5111246;28;20445;-83
2021/01/15 03:43:17;;;;;;;31.98;16.15;;;0.30;88.90;;;;;;5110918;28;20399;-84
2021/01/15 03:45:44;;;;;;;29.17;14.68;;;0.20;89.00;;;;;;5111070;28;20711;-83
2021/01/15 03:48:10;;;;;;;30.67;16.07;;;0.30;89.20;;;;;;5110971;28;20763;-83
2021/01/15 03:50:37;;;;;;;33.97;16.37;;;0.30;89.30;;;;;;5111013;28;20556;-85
2021/01/15 03:53:03;;;;;;;36.07;16.90;;;0.20;89.40;;;;;;5110991;28;20889;-85
2021/01/15 03:55:28;;;;;;;38.10;18.25;;;0.20;89.60;;;;;;5110800;28;20858;-83
2021/01/15 03:57:54;;;;;;;39.47;18.03;;;0.20;89.70;;;;;;5112084;27;20506;-84
2021/01/15 04:00:20;;;;;;;33.00;17.30;;;0.20;89.80;;;;;;5103912;28;20374;-83
2021/01/15 04:02:45;;;;;;;38.22;18.08;;;0.20;90.00;;;;;;5090019;28;20394;-86
2021/01/15 04:05:13;;;;;;;43.15;19.42;;;0.20;90.00;;;;;;5090471;28;20479;-84
2021/01/15 04:07:39;;;;;;;38.33;19.20;;;0.20;90.00;;;;;;5091101;28;20455;-84
2021/01/15 04:10:07;;;;;;;40.97;19.67;;;0.20;90.00;;;;;;5089960;28;20417;-84
2021/01/15 04:12:32;;;;;;;38.63;18.95;;;0.20;90.10;;;;;;5089937;28;20489;-83
2021/01/15 04:14:58;;;;;;;35.63;18.90;;;0.20;90.10;;;;;;5090325;28;20524;-82
2021/01/15 04:17:24;;;;;;;37.97;19.33;;;0.10;90.10;;;;;;5090866;28;20377;-82
2021/01/15 04:19:49;;;;;;;37.20;19.50;;;0.20;89.90;;;;;;5090022;28;20386;-82
2021/01/15 04:22:15;;;;;;;40.33;20.02;;;0.20;89.80;;;;;;5090701;28;20386;-82
2021/01/15 04:24:41;;;;;;;44.33;19.25;;;0.10;90.10;;;;;;5091472;28;20835;-82
2021/01/15 04:27:07;;;;;;;41.25;20.13;;;0.20;90.00;;;;;;5089447;28;20815;-83
2021/01/15 04:29:32;;;;;;;38.03;19.07;;;0.20;90.10;;;;;;5090169;28;20386;-82
2021/01/15 04:31:58;;;;;;;39.10;19.00;;;0.20;90.10;;;;;;5090642;28;20785;-82
2021/01/15 04:34:24;;;;;;;37.83;19.85;;;0.20;90.00;;;;;;5089516;28;20386;-84
2021/01/15 04:36:49;;;;;;;40.55;18.88;;;0.20;90.30;;;;;;5090966;28;20374;-83
2021/01/15 04:39:15;;;;;;;38.35;19.27;;;0.20;90.10;;;;;;5089720;28;20393;-84
2021/01/15 04:41:43;;;;;;;40.00;18.57;;;0.10;90.20;;;;;;5089855;28;20839;-83
2021/01/15 04:44:09;;;;;;;36.53;18.70;;;0.10;90.20;;;;;;5089391;28;20393;-84
2021/01/15 04:46:38;;;;;;;41.83;19.48;;;0.10;90.30;;;;;;5089367;28;20465;-84
2021/01/15 04:49:09;;;;;;;38.80;18.65;;;0.20;90.20;;;;;;5089420;28;20867;-82
2021/01/15 04:51:37;;;;;;;42.88;20.30;;;0.20;90.10;;;;;;5090344;28;20501;-83
2021/01/15 04:54:09;;;;;;;42.30;20.02;;;0.20;90.20;;;;;;5088684;28;20397;-84
2021/01/15 04:56:36;;;;;;;42.30;20.25;;;0.10;90.30;;;;;;5089096;28;20406;-83
2021/01/15 04:59:05;;;;;;;42.95;20.48;;;0.10;90.40;;;;;;5103103;28;20389;-85
2021/01/15 05:01:42;;;;;;;40.25;20.08;;;0.10;90.50;;;;;;5110890;28;20379;-82
2021/01/15 05:04:12;;;;;;;40.15;20.02;;;0.10;90.60;;;;;;5109901;28;20384;-83
2021/01/15 05:06:45;;;;;;;45.40;19.80;;;0.10;90.50;;;;;;5109167;28;20380;-82
2021/01/15 05:09:24;;;;;;;40.00;20.63;;;0.00;90.50;;;;;;5109841;28;20467;-82
2021/01/15 05:11:51;;;;;;;42.20;19.83;;;0.00;90.60;;;;;;5109415;28;20388;-82
2021/01/15 05:14:21;;;;;;;42.88;20.90;;;0.00;90.60;;;;;;5109666;28;20404;-83
2021/01/15 05:16:49;;;;;;;42.55;20.77;;;0.00;90.60;;;;;;5110400;28;20415;-82
2021/01/15 05:19:16;;;;;;;41.67;20.55;;;0.00;90.60;;;;;;5111128;28;20372;-82
2021/01/15 05:21:43;;;;;;;39.55;20.10;;;0.00;90.70;;;;;;5109449;28;20381;-84
2021/01/15 05:24:10;;;;;;;39.65;19.80;;;0.00;90.80;;;;;;5109477;28;20390;-82
2021/01/15 05:26:37;;;;;;;43.55;20.27;;;0.00;90.60;;;;;;5105139;28;20482;-83
2021/01/15 05:29:08;;;;;;;38.95;19.23;;;0.00;90.70;;;;;;5088874;28;20390;-82
2021/01/15 05:31:53;;;;;;;34.95;18.92;;;0.00;90.40;;;;;;5089365;28;20912;-82
2021/01/15 05:34:21;;;;;;;39.67;19.03;;;0.00;90.50;;;;;;5088772;28;20433;-84
2021/01/15 05:36:47;;;;;;;38.40;19.00;;;0.00;90.50;;;;;;5105743;28;20388;-84
2021/01/15 05:39:18;;;;;;;35.87;18.73;;;0.00;90.40;;;;;;5109279;28;20407;-83
2021/01/15 05:41:46;;;;;;;35.88;19.33;;;0.00;90.60;;;;;;5109621;28;20384;-83
2021/01/15 05:44:28;;;;;;;39.28;19.52;;;0.00;90.50;;;;;;5109462;28;20428;-82
2021/01/15 05:46:54;;;;;;;41.78;19.23;;;0.00;90.50;;;;;;5109053;28;20385;-82
2021/01/15 05:49:20;;;;;;;39.10;20.07;;;0.00;90.60;;;;;;5109352;28;20828;-82
2021/01/15 05:51:45;;;;;;;45.25;19.70;;;0.00;90.60;;;;;;5109555;28;20419;-82
2021/01/15 05:54:12;;;;;;;37.45;19.98;;;0.00;90.80;;;;;;5109459;28;20802;-82
2021/01/15 05:56:45;;;;;;;37.40;19.83;;;0.00;90.80;;;;;;5108960;28;20392;-83
2021/01/15 05:59:13;;;;;;;39.25;20.10;;;0.00;90.70;;;;;;5109366;28;20794;-83
2021/01/15 06:01:55;;;;;;;43.83;20.30;;;0.00;90.90;;;;;;5110646;28;20369;-83
2021/01/15 06:04:36;;;;;;;41.33;20.40;;;0.00;90.70;;;;;;5109760;28;20573;-85
2021/01/15 06:07:02;;;;;;;41.03;21.07;;;0.00;90.50;;;;;;5112880;27;20396;-84
2021/01/15 06:09:27;;;;;;;44.03;21.10;;;-3276.70;90.80;;;;;;5114402;28;20383;-85
2021/01/15 06:12:09;;;;;;;41.50;20.70;;;0.00;90.70;;;;;;5114297;28;20381;-84
2021/01/15 06:14:48;;;;;;;46.53;22.00;;;0.00;90.60;;;;;;5104682;28;20390;-85
2021/01/15 06:17:18;;;;;;;48.10;21.77;;;-3276.70;90.80;;;;;;5091997;28;20386;-83
2021/01/15 06:19:46;;;;;;;43.45;21.63;;;0.00;90.70;;;;;;5098841;28;20393;-83
2021/01/15 06:22:36;;;;;;;44.47;22.00;;;-3276.70;90.90;;;;;;5092539;28;20758;-85
2021/01/15 06:25:04;;;;;;;48.47;22.33;;;-3276.70;90.90;;;;;;5106846;28;20385;-86
2021/01/15 06:27:41;;;;;;;45.65;22.48;;;-3276.60;91.10;;;;;;5091753;28;20390;-83
2021/01/15 06:30:13;;;;;;;48.30;22.70;;;-3276.60;91.00;;;;;;5093414;28;20378;-82
2021/01/15 06:32:39;;;;;;;45.88;22.15;;;-3276.60;90.90;;;;;;5091836;28;20437;-81
2021/01/15 06:35:06;;;;;;;39.67;20.20;;;-3276.60;91.00;;;;;;5093868;28;20464;-82
2021/01/15 06:37:34;;;;;;;44.20;21.25;;;-3276.60;91.10;;;;;;5091392;28;20732;-81
2021/01/15 06:40:18;;;;;;;43.35;21.80;;;-3276.70;90.90;;;;;;5099689;28;20440;-82
2021/01/15 06:42:48;;;;;;;40.80;20.67;;;-3276.70;90.80;;;;;;5113430;28;20897;-82
2021/01/15 06:45:15;;;;;;;45.43;22.17;;;-3276.70;90.70;;;;;;5113251;28;20385;-82
2021/01/15 06:47:46;;;;;;;42.67;20.70;;;-3276.70;90.80;;;;;;5111727;28;20495;-81
2021/01/15 06:50:17;;;;;;;45.42;21.67;;;-3276.70;91.00;;;;;;5093027;28;20431;-83
2021/01/15 06:52:50;;;;;;;48.97;21.83;;;-3276.70;90.80;;;;;;5100501;28;20487;-82
2021/01/15 06:55:19;;;;;;;48.10;22.02;;;-3276.70;90.90;;;;;;5113217;28;20381;-82
2021/01/15 06:57:49;;;;;;;48.25;22.45;;;-3276.60;90.90;;;;;;5111813;28;20392;-82
2021/01/15 07:00:23;;;;;;;52.78;24.13;;;-3276.60;91.20;;;;;;5111190;28;20447;-83
2021/01/15 07:02:57;;;;;;;47.75;21.83;;;-3276.60;91.00;;;;;;5113110;28;20415;-82
2021/01/15 07:05:26;;;;;;;53.53;24.65;;;-3276.60;91.10;;;;;;5111996;28;20992;-81
2021/01/15 07:07:54;;;;;;;69.03;29.10;;;-3276.70;91.10;;;;;;5111189;28;20939;-82
2021/01/15 07:10:20;;;;;;;50.15;22.05;;;0.00;90.90;;;;;;5112843;27;20974;-83
2021/01/15 07:12:56;;;;;;;50.47;22.83;;;-3276.70;90.80;;;;;;5111475;28;20401;-83
2021/01/15 07:15:26;;;;;;;50.60;22.75;;;-3276.70;91.00;;;;;;5111881;28;20745;-82
2021/01/15 07:17:59;;;;;;;56.53;23.08;;;-3276.70;91.00;;;;;;5111654;28;20411;-81
2021/01/15 07:20:38;;;;;;;52.83;23.67;;;-3276.70;91.10;;;;;;5111424;28;20463;-83
2021/01/15 07:23:46;;;;;;;47.10;22.35;;;-3276.70;90.90;;;;;;5111425;28;20423;-82
2021/01/15 07:26:13;;;;;;;49.90;23.05;;;-3276.70;91.20;;;;;;5112686;28;20369;-82
2021/01/15 07:28:40;;;;;;;48.58;22.50;;;-3276.70;90.90;;;;;;5110693;28;20869;-82
2021/01/15 07:31:07;;;;;;;47.00;20.95;;;-3276.70;91.00;;;;;;5112240;28;20376;-82
2021/01/15 07:33:37;;;;;;;47.92;22.67;;;-3276.70;91.00;;;;;;5111281;28;20895;-82
2021/01/15 07:36:03;;;;;;;49.50;23.23;;;-3276.70;91.00;;;;;;5111459;28;20407;-84
2021/01/15 07:38:29;;;;;;;45.85;22.35;;;-3276.70;91.30;;;;;;5110788;28;20865;-83
2021/01/15 07:40:55;;;;;;;51.27;23.10;;;-3276.70;91.00;;;;;;5111195;28;20395;-83
2021/01/15 07:43:29;;;;;;;48.05;22.60;;;-3276.70;90.90;;;;;;5111067;28;20392;-83
2021/01/15 07:46:00;;;;;;;47.53;22.90;;;-3276.70;91.00;;;;;;5111328;28;20431;-82
2021/01/15 07:48:25;;;;;;;45.78;22.33;;;0.00;90.80;;;;;;5112006;28;20459;-82
2021/01/15 07:50:53;;;;;;;48.58;23.17;;;0.00;90.70;;;;;;5110805;28;20463;-82
2021/01/15 07:53:18;;;;;;;45.90;21.60;;;-3276.70;91.00;;;;;;5110441;28;20912;-85
2021/01/15 07:55:53;;;;;;;43.03;19.65;;;-3276.70;91.10;;;;;;5110014;28;20408;-83
2021/01/15 07:58:42;;;;;;;45.38;21.58;;;-3276.70;91.20;;;;;;5107182;28;20554;-82
2021/01/15 08:01:16;;;;;;;43.10;21.13;;;-3276.70;91.30;;;;;;5112220;27;20377;-82
2021/01/15 08:03:52;;;;;;;45.50;21.17;;;0.00;91.10;;;;;;5110934;28;20479;-82
2021/01/15 08:06:19;;;;;;;41.30;20.85;;;0.00;91.00;;;;;;5100552;28;20480;-82
2021/01/15 08:09:08;;;;;;;41.80;20.48;;;0.00;91.40;;;;;;5114603;27;20397;-85
2021/01/15 08:11:35;;;;;;;46.65;20.70;;;0.00;91.10;;;;;;5112843;27;20390;-84
2021/01/15 08:14:16;;;;;;;44.93;21.33;;;0.00;91.30;;;;;;5089712;28;20409;-83
2021/01/15 08:16:46;;;;;;;46.08;20.92;;;0.00;91.20;;;;;;5091746;28;20394;-83
2021/01/15 08:19:13;;;;;;;43.58;20.17;;;-3276.70;91.20;;;;;;5090963;28;20378;-85
2021/01/15 08:21:41;;;;;;;44.05;20.15;;;0.00;91.10;;;;;;5092412;28;20390;-82
2021/01/15 08:24:07;;;;;;;46.03;21.08;;;0.00;91.40;;;;;;5110490;28;20389;-82
2021/01/15 08:26:42;;;;;;;44.88;20.73;;;0.00;91.10;;;;;;5094028;28;20378;-82
2021/01/15 08:29:07;;;;;;;43.15;20.33;;;0.00;91.00;;;;;;5088905;28;20875;-83
2021/01/15 08:31:33;;;;;;;44.67;21.07;;;0.00;91.10;;;;;;5090013;28;20378;-82
2021/01/15 08:34:13;;;;;;;43.50;21.08;;;0.00;90.90;;;;;;5089748;28;20474;-83
2021/01/15 08:36:45;;;;;;;44.63;21.27;;;0.00;90.90;;;;;;5089394;28;20422;-83
2021/01/15 08:39:11;;;;;;;44.97;21.58;;;0.00;90.70;;;;;;5101562;28;20435;-82
2021/01/15 08:41:38;;;;;;;42.72;21.25;;;0.00;91.10;;;;;;5089816;28;20422;-83
2021/01/15 08:44:04;;;;;;;43.40;20.03;;;0.00;91.00;;;;;;5107786;28;20887;-81
2021/01/15 08:46:32;;;;;;;47.15;21.27;;;0.10;90.80;;;;;;5109920;28;20376;-83
2021/01/15 08:48:59;;;;;;;40.23;20.57;;;0.10;91.00;;;;;;5109793;28;20385;-83
2021/01/15 08:51:27;;;;;;;43.40;20.90;;;0.10;90.70;;;;;;5099374;28;20443;-83
2021/01/15 08:54:04;;;;;;;44.75;20.67;;;0.00;91.00;;;;;;5109940;28;20819;-82
2021/01/15 08:56:37;;;;;;;44.58;20.08;;;0.10;91.00;;;;;;5108030;28;20487;-81
2021/01/15 08:59:04;;;;;;;45.03;21.23;;;0.10;90.90;;;;;;5095464;28;20425;-83
2021/01/15 09:01:32;;;;;;;42.20;20.63;;;0.10;90.70;;;;;;5090273;28;20394;-82
2021/01/15 09:04:04;;;;;;;42.55;20.98;;;0.10;90.70;;;;;;5094424;28;20373;-82
2021/01/15 09:06:30;;;;;;;44.30;20.38;;;0.10;90.90;;;;;;5096099;28;20729;-82
2021/01/15 09:08:58;;;;;;;42.47;19.42;;;0.10;90.90;;;;;;5108937;28;20381;-82
2021/01/15 09:11:29;;;;;;;41.35;20.08;;;0.10;90.70;;;;;;5096229;28;20916;-82
2021/01/15 09:13:55;;;;;;;42.63;21.07;;;0.00;90.90;;;;;;5089136;28;20422;-84
2021/01/15 09:16:23;;;;;;;42.95;19.63;;;0.00;91.00;;;;;;5108768;28;20430;-82
2021/01/15 09:18:53;;;;;;;47.70;21.50;;;0.10;90.70;;;;;;5109216;28;20380;-84
2021/01/15 09:21:20;;;;;;;40.20;19.15;;;0.10;90.60;;;;;;5098988;28;20386;-83
2021/01/15 09:23:47;;;;;;;40.90;18.77;;;0.10;90.60;;;;;;5096987;28;20394;-83
2021/01/15 09:26:12;;;;;;;40.28;19.17;;;0.20;90.20;;;;;;5110609;28;20902;-84
2021/01/15 09:28:38;;;;;;;45.07;20.30;;;0.20;90.10;;;;;;5110498;28;20380;-83
2021/01/15 09:31:04;;;;;;;39.40;19.43;;;0.20;90.40;;;;;;5109570;28;20984;-83
2021/01/15 09:33:30;;;;;;;41.45;19.58;;;0.20;90.30;;;;;;5109246;28;20929;-82
2021/01/15 09:35:56;;;;;;;40.67;19.15;;;0.20;90.30;;;;;;5109291;28;20631;-82
2021/01/15 09:38:21;;;;;;;39.80;19.05;;;0.20;90.30;;;;;;5109088;28;20459;-82
2021/01/15 09:40:47;;;;;;;38.33;18.08;;;0.30;90.20;;;;;;5113390;28;20389;-83
2021/01/15 09:43:13;;;;;;;40.07;19.20;;;0.30;89.90;;;;;;5109819;28;20473;-83
2021/01/15 09:45:38;;;;;;;42.17;18.33;;;0.30;89.80;;;;;;5107203;28;20389;-84
2021/01/15 09:48:08;;;;;;;43.83;18.73;;;0.30;89.50;;;;;;5113552;28;20400;-83
2021/01/15 09:50:33;;;;;;;36.65;16.95;;;0.30;89.50;;;;;;5099611;28;20389;-83
2021/01/15 09:52:59;;;;;;;34.67;17.85;;;0.40;89.40;;;;;;5093035;28;20850;-83
2021/01/15 09:55:25;;;;;;;38.45;17.15;;;0.40;89.50;;;;;;5092517;28;20758;-83
2021/01/15 09:57:51;;;;;;;37.25;16.50;;;0.40;89.00;;;;;;5092508;28;20390;-84
2021/01/15 10:00:17;;;;;;;33.83;16.23;;;0.40;88.80;;;;;;5111001;28;20940;-82
2021/01/15 10:02:42;;;;;;;38.03;17.92;;;0.40;88.80;;;;;;5113178;28;20420;-82
2021/01/15 10:05:09;;;;;;;36.13;17.60;;;0.50;88.90;;;;;;5113964;28;20453;-83
2021/01/15 10:07:34;;;;;;;34.22;16.88;;;0.60;88.40;;;;;;5107483;28;20397;-83
2021/01/15 10:10:00;;;;;;;35.30;16.48;;;0.60;88.50;;;;;;5093721;28;20382;-83
2021/01/15 10:12:25;;;;;;;33.42;16.20;;;0.60;87.70;;;;;;5112529;28;20404;-84
2021/01/15 10:14:51;;;;;;;33.13;15.67;;;0.60;87.60;;;;;;5112981;28;20388;-84
2021/01/15 10:17:17;;;;;;;37.50;15.93;;;0.70;87.60;;;;;;5094580;28;20901;-82
2021/01/15 10:19:42;;;;;;;38.17;14.73;;;0.70;87.40;;;;;;5092623;28;20416;-82
2021/01/15 10:22:08;;;;;;;35.00;15.77;;;0.80;87.00;;;;;;5091981;28;20388;-83
2021/01/15 10:24:34;;;;;;;34.50;15.23;;;0.80;87.10;;;;;;5103689;27;20404;-83
2021/01/15 10:27:00;;;;;;;31.08;14.90;;;0.90;86.40;;;;;;5112069;28;20412;-82
2021/01/15 10:29:26;;;;;;;33.42;14.75;;;0.90;86.60;;;;;;5102116;28;20879;-82
2021/01/15 10:31:54;;;;;;;32.00;14.80;;;1.00;86.70;;;;;;5113369;28;20447;-83
2021/01/15 10:34:21;;;;;;;25.47;13.23;;;1.00;86.30;;;;;;5112541;28;20400;-82
2021/01/15 10:36:47;;;;;;;32.15;14.82;;;1.00;85.70;;;;;;5111868;28;20385;-83
2021/01/15 10:39:14;;;;;;;25.35;12.05;;;1.00;85.60;;;;;;5092132;28;20390;-83
2021/01/15 10:41:44;;;;;;;24.13;12.48;;;1.00;84.30;;;;;;5109239;28;20742;-84
2021/01/15 10:44:10;;;;;;;24.40;11.35;;;1.10;84.00;;;;;;5112626;28;20381;-85
2021/01/15 10:46:38;;;;;;;23.63;10.60;;;1.10;81.80;;;;;;5112256;28;20467;-85
2021/01/15 10:49:05;;;;;;;19.42;9.55;;;1.00;82.90;;;;;;5112079;28;20406;-85
2021/01/15 10:51:31;;;;;;;26.08;11.27;;;1.10;81.90;;;;;;5111310;28;20380;-84
2021/01/15 10:53:57;;;;;;;24.20;10.77;;;1.00;82.40;;;;;;5109752;28;20903;-84
2021/01/15 10:56:24;;;;;;;25.00;10.07;;;1.10;83.10;;;;;;5099844;28;20397;-84
2021/01/15 10:58:50;;;;;;;20.83;9.80;;;1.20;81.70;;;;;;5097947;28;20394;-85
2021/01/15 11:01:16;;;;;;;27.42;10.68;;;1.10;81.70;;;;;;5109085;28;20380;-85
2021/01/15 11:03:45;;;;;;;20.33;10.00;;;1.10;82.30;;;;;;5093206;28;20389;-83
2021/01/15 11:06:18;;;;;;;22.33;9.82;;;1.20;82.10;;;;;;5091695;28;20426;-83
2021/01/15 11:08:43;;;;;;;21.02;9.55;;;1.10;81.10;;;;;;5091654;28;20860;-83
2021/01/15 11:11:09;;;;;;;25.27;11.10;;;1.20;81.30;;;;;;5091441;28;20422;-84
2021/01/15 11:13:35;;;;;;;25.27;10.40;;;1.30;81.30;;;;;;5093902;28;20415;-84
2021/01/15 11:16:00;;;;;;;23.97;9.47;;;1.40;81.30;;;;;;5095643;28;20885;-84
2021/01/15 11:18:26;;;;;;;25.08;9.65;;;1.40;81.60;;;;;;5112940;28;20373;-84
2021/01/15 11:20:51;;;;;;;27.02;10.70;;;1.40;81.00;;;;;;5097329;28;20489;-84
2021/01/15 11:23:17;;;;;;;22.98;9.60;;;1.40;80.30;;;;;;5091335;28;20397;-85
2021/01/15 11:25:43;;;;;;;27.60;10.35;;;1.40;80.40;;;;;;5110706;28;20740;-84
2021/01/15 11:28:09;;;;;;;25.50;10.00;;;1.40;81.80;;;;;;5111329;28;20388;-83
2021/01/15 11:30:36;;;;;;;23.05;10.07;;;1.40;80.90;;;;;;5110525;28;20398;-85
2021/01/15 11:33:02;;;;;;;23.63;9.98;;;1.40;82.30;;;;;;5112500;27;20803;-82
2021/01/15 11:35:28;;;;;;;18.00;9.52;;;1.50;81.20;;;;;;5093010;28;20396;-85
2021/01/15 11:37:58;;;;;;;22.83;8.23;;;1.50;81.30;;;;;;5101715;28;20479;-82
2021/01/15 11:40:24;;;;;;;22.88;9.30;;;1.50;80.40;;;;;;5099791;28;20447;-83
2021/01/15 11:42:59;;;;;;;20.23;9.15;;;1.50;79.70;;;;;;5092029;28;20717;-85
2021/01/15 11:45:26;;;;;;;18.27;9.18;;;1.50;79.10;;;;;;5090966;28;20754;-83
2021/01/15 11:47:58;;;;;;;22.48;8.80;;;1.40;78.90;;;;;;5091544;28;20370;-85
2021/01/15 11:50:26;;;;;;;19.57;9.97;;;1.40;79.60;;;;;;5092140;28;20442;-85
2021/01/15 11:52:56;;;;;;;18.67;9.48;;;1.40;80.00;;;;;;5090387;28;20480;-86
2021/01/15 11:55:22;;;;;;;21.50;9.90;;;1.50;79.30;;;;;;5090147;28;21072;-84
2021/01/15 11:57:51;;;;;;;23.38;10.80;;;1.50;79.90;;;;;;5095262;28;20388;-84
2021/01/15 12:00:19;;;;;;;22.40;9.43;;;1.60;80.90;;;;;;5110951;28;20435;-83
2021/01/15 12:02:44;;;;;;;19.07;9.40;;;1.70;79.00;;;;;;5091905;28;20389;-84
2021/01/15 12:05:11;;;;;;;26.63;10.57;;;1.70;79.40;;;;;;5090385;28;20393;-83
2021/01/15 12:07:37;;;;;;;22.87;10.37;;;1.60;79.80;;;;;;5105647;28;20379;-83
2021/01/15 12:10:05;;;;;;;28.65;10.55;;;1.50;79.50;;;;;;5110639;27;20737;-82
2021/01/15 12:12:35;;;;;;;22.58;9.73;;;1.60;80.80;;;;;;5109556;28;20439;-84
2021/01/15 12:15:00;;;;;;;24.83;9.63;;;1.50;79.50;;;;;;5095489;28;20432;-81
2021/01/15 12:17:26;;;;;;;20.65;9.48;;;1.50;79.70;;;;;;5089601;28;20385;-84
2021/01/15 12:19:51;;;;;;;21.52;9.63;;;1.50;79.60;;;;;;5089992;28;20390;-79
2021/01/15 12:22:17;;;;;;;26.07;10.30;;;1.50;79.60;;;;;;5091293;28;20922;-83
2021/01/15 12:24:43;;;;;;;21.00;9.20;;;1.50;79.80;;;;;;5100518;28;20420;-81
2021/01/15 12:27:08;;;;;;;20.37;10.03;;;1.50;79.50;;;;;;5111112;28;20376;-81
2021/01/15 12:29:34;;;;;;;23.17;10.23;;;1.40;79.50;;;;;;5111393;28;20405;-80
2021/01/15 12:32:00;;;;;;;24.20;10.65;;;1.40;80.50;;;;;;5111313;28;20417;-81
2021/01/15 12:34:25;;;;;;;24.27;11.77;;;1.40;80.90;;;;;;5110238;28;20787;-84
2021/01/15 12:36:51;;;;;;;27.67;12.88;;;1.40;81.70;;;;;;5109712;28;20376;-83
2021/01/15 12:39:17;;;;;;;24.45;12.05;;;1.30;82.40;;;;;;5105316;28;20419;-83
2021/01/15 12:41:43;;;;;;;27.13;11.40;;;1.30;82.50;;;;;;5110006;28;20725;-83
2021/01/15 12:44:08;;;;;;;29.65;13.20;;;1.30;82.60;;;;;;5104540;28;20430;-83